createdAt,value
2019-05-18T00:02:08.537Z,78.22
2019-05-18T00:04:42.184Z,78.25
2019-05-18T00:07:15.766Z,78.25
2019-05-18T00:09:49.340Z,78.44
2019-05-18T00:12:22.894Z,78.92
2019-05-18T00:14:56.383Z,78.92
2019-05-18T00:17:30.014Z,79.22
2019-05-18T00:20:04.846Z,79.48
2019-05-18T00:22:38.394Z,79.74
2019-05-18T00:25:12.154Z,79.64
2019-05-18T00:27:45.696Z,79.64
2019-05-18T00:30:19.340Z,80.05
2019-05-18T00:32:52.821Z,80.14
2019-05-18T00:35:26.343Z,80.17
2019-05-18T00:37:59.814Z,80.57
2019-05-18T00:40:33.475Z,80.75
2019-05-18T00:43:07.055Z,80.88
2019-05-18T00:45:40.766Z,80.98
2019-05-18T00:48:14.276Z,81.02
2019-05-18T00:50:47.834Z,80.85
2019-05-18T00:53:21.540Z,80.87
2019-05-18T00:55:55.175Z,80.78
2019-05-18T00:58:28.991Z,80.69
2019-05-18T01:01:02.465Z,80.57
2019-05-18T01:03:36.015Z,80.47
2019-05-18T01:06:09.651Z,80.18
2019-05-18T01:08:43.214Z,80.18
2019-05-18T01:11:16.822Z,80.07
2019-05-18T01:13:50.397Z,80.01
2019-05-18T01:16:24.002Z,79.89
2019-05-18T01:18:57.489Z,79.69
2019-05-18T01:21:31.224Z,79.69
2019-05-18T01:24:04.970Z,79.70
2019-05-18T01:26:38.558Z,79.71
2019-05-18T01:29:12.184Z,79.80
2019-05-18T01:31:45.706Z,79.82
2019-05-18T01:34:19.256Z,80.13
2019-05-18T01:36:52.738Z,80.57
2019-05-18T01:39:26.352Z,80.57
2019-05-18T01:41:59.918Z,80.57
2019-05-18T01:44:33.400Z,80.68
2019-05-18T01:47:06.982Z,80.73
2019-05-18T01:49:40.570Z,80.86
2019-05-18T01:52:14.228Z,81.00
2019-05-18T01:54:47.851Z,81.12
2019-05-18T01:57:21.378Z,81.10
2019-05-18T01:59:54.817Z,81.37
2019-05-18T02:02:28.456Z,81.65
2019-05-18T02:05:02.123Z,81.82
2019-05-18T02:07:35.831Z,81.94
2019-05-18T02:10:09.853Z,82.21
2019-05-18T02:12:43.336Z,82.46
2019-05-18T02:15:17.098Z,82.54
2019-05-18T02:17:50.625Z,83.00
2019-05-18T02:20:24.244Z,83.09
2019-05-18T02:22:57.745Z,83.28
2019-05-18T02:25:31.282Z,83.60
2019-05-18T02:28:06.543Z,83.39
2019-05-18T02:30:40.080Z,83.25
2019-05-18T02:33:13.573Z,83.18
2019-05-18T02:35:47.120Z,83.15
2019-05-18T02:38:20.648Z,83.19
2019-05-18T02:40:54.269Z,83.20
2019-05-18T02:43:27.916Z,83.21
2019-05-18T02:46:01.471Z,83.29
2019-05-18T02:48:49.000Z,83.39
2019-05-18T02:51:11.722Z,83.67
2019-05-18T02:53:45.527Z,83.62
2019-05-18T02:56:19.207Z,83.58
2019-05-18T02:58:52.696Z,83.78
2019-05-18T03:01:26.511Z,83.72
2019-05-18T03:04:00.097Z,83.97
2019-05-18T03:06:33.667Z,83.94
2019-05-18T03:09:07.619Z,83.58
2019-05-18T03:11:41.327Z,83.59
2019-05-18T03:14:14.975Z,83.54
2019-05-18T03:16:48.532Z,83.66
2019-05-18T03:19:22.166Z,83.45
2019-05-18T03:21:55.638Z,83.63
2019-05-18T03:24:29.193Z,83.65
2019-05-18T03:27:02.725Z,83.59
2019-05-18T03:29:36.315Z,83.75
2019-05-18T03:32:09.797Z,83.71
2019-05-18T03:34:43.430Z,83.76
2019-05-18T03:37:16.911Z,83.95
2019-05-18T03:39:50.561Z,83.52
2019-05-18T03:42:24.115Z,83.26
2019-05-18T03:44:57.698Z,82.99
2019-05-18T03:47:31.252Z,82.77
2019-05-18T03:50:07.502Z,82.64
2019-05-18T03:52:40.985Z,82.57
2019-05-18T03:55:14.619Z,82.57
2019-05-18T03:57:48.099Z,82.44
2019-05-18T04:00:21.622Z,82.44
2019-05-18T04:02:55.165Z,82.35
2019-05-18T04:05:28.756Z,82.33
2019-05-18T04:08:02.215Z,82.40
2019-05-18T04:10:35.870Z,82.43
2019-05-18T04:13:09.375Z,82.46
2019-05-18T04:15:42.977Z,82.31
2019-05-18T04:18:16.471Z,82.18
2019-05-18T04:20:49.979Z,82.11
2019-05-18T04:23:23.569Z,82.05
2019-05-18T04:25:57.071Z,82.06
2019-05-18T04:28:30.603Z,81.98
2019-05-18T04:31:04.192Z,81.96
2019-05-18T04:33:37.660Z,82.03
2019-05-18T04:36:11.174Z,81.93
2019-05-18T04:38:44.655Z,81.80
2019-05-18T04:41:18.255Z,81.75
2019-05-18T04:43:51.867Z,81.89
2019-05-18T04:46:25.487Z,81.87
2019-05-18T04:48:59.033Z,81.75
2019-05-18T04:51:32.520Z,81.63
2019-05-18T04:54:06.217Z,81.49
2019-05-18T04:56:42.896Z,81.31
2019-05-18T04:59:15.189Z,81.16
2019-05-18T05:01:48.901Z,81.03
2019-05-18T05:04:22.568Z,80.87
2019-05-18T05:06:56.037Z,80.74
2019-05-18T05:09:29.536Z,80.62
2019-05-18T05:12:03.127Z,80.49
2019-05-18T05:14:36.692Z,80.31
2019-05-18T05:17:10.340Z,80.08
2019-05-18T05:19:43.821Z,79.95
2019-05-18T05:22:17.392Z,79.79
2019-05-18T05:24:50.873Z,79.58
2019-05-18T05:27:24.550Z,79.39
2019-05-18T05:29:58.288Z,79.15
2019-05-18T05:32:31.925Z,78.93
2019-05-18T05:35:06.547Z,78.58
2019-05-18T05:37:40.058Z,78.45
2019-05-18T05:40:13.884Z,78.13
2019-05-18T05:42:47.466Z,78.01
2019-05-18T05:45:21.088Z,77.84
2019-05-18T05:47:54.587Z,77.48
2019-05-18T05:50:36.047Z,77.14
2019-05-18T05:53:03.388Z,77.32
2019-05-18T05:55:36.922Z,77.00
2019-05-18T05:58:10.513Z,76.71
2019-05-18T06:00:44.141Z,76.58
2019-05-18T06:03:17.666Z,76.18
2019-05-18T06:05:51.234Z,76.03
2019-05-18T06:08:24.935Z,75.75
2019-05-18T06:10:58.478Z,75.58
2019-05-18T06:13:32.056Z,75.37
2019-05-18T06:16:05.724Z,74.89
2019-05-18T06:18:39.299Z,74.79
2019-05-18T06:21:12.782Z,74.65
2019-05-18T06:23:46.274Z,74.66
2019-05-18T06:26:19.857Z,74.46
2019-05-18T06:28:53.586Z,74.31
2019-05-18T06:31:27.078Z,74.08
2019-05-18T06:34:00.577Z,73.75
2019-05-18T06:36:34.134Z,73.55
2019-05-18T06:39:08.407Z,73.23
2019-05-18T06:41:41.870Z,72.71
2019-05-18T06:44:15.461Z,72.27
2019-05-18T06:46:48.962Z,72.03
2019-05-18T06:49:22.485Z,71.78
2019-05-18T06:51:56.062Z,71.54
2019-05-18T06:54:30.013Z,71.09
2019-05-18T06:57:04.348Z,70.61
2019-05-18T06:59:38.367Z,70.10
2019-05-18T07:02:11.903Z,69.88
2019-05-18T07:04:45.402Z,69.61
2019-05-18T07:07:19.202Z,69.21
2019-05-18T07:09:52.719Z,68.99
2019-05-18T07:12:26.268Z,68.69
2019-05-18T07:15:00.462Z,68.21
2019-05-18T07:17:34.744Z,67.82
2019-05-18T07:20:09.123Z,67.66
2019-05-18T07:22:42.743Z,67.21
2019-05-18T07:25:16.435Z,67.01
2019-05-18T07:27:50.017Z,66.52
2019-05-18T07:30:23.708Z,66.09
2019-05-18T07:32:57.180Z,66.00
2019-05-18T07:35:30.836Z,65.89
2019-05-18T07:38:04.391Z,65.53
2019-05-18T07:40:38.123Z,65.26
2019-05-18T07:43:11.621Z,64.94
2019-05-18T07:45:45.242Z,64.58
2019-05-18T07:48:18.747Z,64.57
2019-05-18T07:50:52.432Z,64.04
2019-05-18T07:53:25.933Z,63.90
2019-05-18T07:55:59.467Z,63.47
2019-05-18T07:58:33.050Z,63.27
2019-05-18T08:01:06.613Z,62.79
2019-05-18T08:03:40.115Z,62.73
2019-05-18T08:06:13.714Z,62.33
2019-05-18T08:08:47.325Z,62.21
2019-05-18T08:11:20.933Z,61.32
2019-05-18T08:13:54.418Z,60.60
2019-05-18T08:16:27.950Z,60.18
2019-05-18T08:19:01.429Z,60.17
2019-05-18T08:21:35.079Z,59.65
2019-05-18T08:24:08.758Z,59.86
2019-05-18T08:26:42.387Z,59.16
2019-05-18T08:29:15.859Z,59.32
2019-05-18T08:31:49.373Z,58.31
2019-05-18T08:34:24.013Z,57.97
2019-05-18T08:36:57.561Z,57.76
2019-05-18T08:39:31.037Z,57.77
2019-05-18T08:42:04.695Z,57.94
2019-05-18T08:44:38.173Z,57.80
2019-05-18T08:47:11.749Z,57.44
2019-05-18T08:49:45.301Z,57.23
2019-05-18T08:52:18.845Z,56.33
2019-05-18T08:54:52.386Z,56.20
2019-05-18T08:57:25.999Z,55.92
2019-05-18T08:59:59.483Z,55.44
2019-05-18T09:02:33.071Z,55.04
2019-05-18T09:05:07.176Z,54.26
2019-05-18T09:07:40.716Z,53.76
2019-05-18T09:10:16.040Z,53.78
2019-05-18T09:12:49.750Z,53.74
2019-05-18T09:15:23.439Z,52.81
2019-05-18T09:17:56.995Z,52.48
2019-05-18T09:20:30.566Z,52.06
2019-05-18T09:23:04.109Z,51.95
2019-05-18T09:25:37.654Z,51.32
2019-05-18T09:28:11.237Z,50.74
2019-05-18T09:30:45.187Z,49.89
2019-05-18T09:33:18.735Z,49.79
2019-05-18T09:35:52.266Z,49.51
2019-05-18T09:38:25.887Z,48.75
2019-05-18T09:40:59.475Z,48.50
2019-05-18T09:43:33.074Z,47.74
2019-05-18T09:46:06.696Z,47.64
2019-05-18T09:48:40.298Z,48.22
2019-05-18T09:51:14.074Z,48.27
2019-05-18T09:53:51.601Z,48.20
2019-05-18T09:56:22.935Z,47.91
2019-05-18T09:58:56.560Z,48.30
2019-05-18T10:01:30.101Z,48.25
2019-05-18T10:04:03.884Z,47.39
2019-05-18T10:06:37.446Z,47.49
2019-05-18T10:09:11.197Z,47.67
2019-05-18T10:11:44.743Z,47.67
2019-05-18T10:14:18.257Z,46.87
2019-05-18T10:16:51.842Z,46.09
2019-05-18T10:19:25.592Z,45.86
2019-05-18T10:21:59.266Z,45.53
2019-05-18T10:24:32.850Z,45.26
2019-05-18T10:27:06.519Z,45.24
2019-05-18T10:29:40.034Z,44.64
2019-05-18T10:32:13.645Z,44.46
2019-05-18T10:34:47.136Z,44.69
2019-05-18T10:37:20.612Z,44.19
2019-05-18T10:39:54.284Z,43.09
2019-05-18T10:42:27.732Z,42.95
2019-05-18T10:45:01.239Z,42.33
2019-05-18T10:47:34.728Z,42.47
2019-05-18T10:50:09.992Z,41.94
2019-05-18T10:52:43.565Z,41.93
2019-05-18T10:55:17.505Z,41.84
2019-05-18T10:57:51.062Z,41.15
2019-05-18T11:00:24.797Z,41.14
2019-05-18T11:02:58.348Z,40.09
2019-05-18T11:05:31.931Z,40.25
2019-05-18T11:08:05.580Z,40.59
2019-05-18T11:10:39.288Z,40.71
2019-05-18T11:13:12.937Z,40.67
2019-05-18T11:15:46.537Z,40.74
2019-05-18T11:18:20.090Z,40.61
2019-05-18T11:20:53.658Z,40.70
2019-05-18T11:23:27.170Z,40.58
2019-05-18T11:26:00.804Z,40.79
2019-05-18T11:28:34.354Z,40.93
2019-05-18T11:31:07.940Z,40.04
2019-05-18T11:33:41.497Z,40.31
2019-05-18T11:36:20.666Z,40.08
2019-05-18T11:38:55.020Z,39.91
2019-05-18T11:41:28.747Z,39.58
2019-05-18T11:44:02.387Z,40.15
2019-05-18T11:46:35.967Z,40.08
2019-05-18T11:49:09.568Z,40.05
2019-05-18T11:51:43.067Z,39.84
2019-05-18T11:54:16.536Z,39.88
2019-05-18T11:56:50.101Z,39.93
2019-05-18T11:59:23.563Z,39.65
2019-05-18T12:01:57.057Z,39.44
2019-05-18T12:04:30.617Z,39.21
2019-05-18T12:07:04.297Z,39.39
2019-05-18T12:09:37.813Z,39.96
2019-05-18T12:12:13.879Z,40.04
2019-05-18T12:14:47.412Z,40.02
2019-05-18T12:17:20.917Z,39.40
2019-05-18T12:19:54.376Z,39.00
2019-05-18T12:22:27.907Z,38.24
2019-05-18T12:25:01.431Z,38.72
2019-05-18T12:27:34.937Z,39.01
2019-05-18T12:30:10.885Z,38.69
2019-05-18T12:32:44.485Z,38.62
2019-05-18T12:35:19.525Z,37.98
2019-05-18T12:37:53.162Z,37.42
2019-05-18T12:40:26.875Z,37.36
2019-05-18T12:43:00.411Z,37.42
2019-05-18T12:45:34.071Z,37.71
2019-05-18T12:48:07.672Z,37.71
2019-05-18T12:50:41.264Z,37.40
2019-05-18T12:53:17.577Z,37.60
2019-05-18T12:55:50.212Z,37.88
2019-05-18T12:58:23.801Z,37.79
2019-05-18T13:00:57.436Z,37.63
2019-05-18T13:03:30.935Z,37.66
2019-05-18T13:06:05.745Z,37.81
2019-05-18T13:08:39.259Z,37.74
2019-05-18T13:11:12.927Z,37.76
2019-05-18T13:13:46.449Z,37.86
2019-05-18T13:16:20.054Z,37.66
2019-05-18T13:18:53.656Z,37.57
2019-05-18T13:21:27.229Z,37.60
2019-05-18T13:24:00.916Z,37.60
2019-05-18T13:26:34.434Z,37.56
2019-05-18T13:29:07.930Z,37.45
2019-05-18T13:31:41.481Z,37.44
2019-05-18T13:34:15.001Z,37.90
2019-05-18T13:36:48.475Z,37.52
2019-05-18T13:39:22.116Z,37.48
2019-05-18T13:41:55.647Z,37.26
2019-05-18T13:44:29.293Z,36.64
2019-05-18T13:47:02.765Z,36.92
2019-05-18T13:49:36.270Z,37.03
2019-05-18T13:52:09.839Z,37.57
2019-05-18T13:54:43.339Z,37.89
2019-05-18T13:57:17.012Z,37.66
2019-05-18T13:59:50.510Z,38.14
2019-05-18T14:02:24.144Z,38.34
2019-05-18T14:04:57.791Z,38.59
2019-05-18T14:07:31.456Z,38.76
2019-05-18T14:10:12.464Z,39.05
2019-05-18T14:12:45.525Z,38.86
2019-05-18T14:15:22.922Z,38.00
2019-05-18T14:17:55.960Z,37.41
2019-05-18T14:20:29.557Z,36.49
2019-05-18T14:23:03.078Z,35.97
2019-05-18T14:25:36.831Z,35.87
2019-05-18T14:28:10.403Z,35.66
2019-05-18T14:30:43.986Z,35.67
2019-05-18T14:33:18.877Z,35.43
2019-05-18T14:35:52.380Z,35.81
2019-05-18T14:38:25.858Z,35.58
2019-05-18T14:40:59.463Z,35.54
2019-05-18T14:43:33.160Z,35.10
2019-05-18T14:46:06.788Z,34.67
2019-05-18T14:48:40.330Z,34.63
2019-05-18T14:51:13.974Z,34.13
2019-05-18T14:53:47.448Z,33.85
2019-05-18T14:56:21.021Z,33.54
2019-05-18T14:58:54.555Z,33.39
2019-05-18T15:01:28.067Z,32.58
2019-05-18T15:04:01.720Z,32.25
2019-05-18T15:06:35.203Z,32.32
2019-05-18T15:09:08.736Z,32.54
2019-05-18T15:11:42.456Z,32.81
2019-05-18T15:14:15.973Z,33.26
2019-05-18T15:16:52.831Z,33.26
2019-05-18T15:22:31.170Z,33.01
2019-05-18T15:25:05.309Z,32.43
2019-05-18T15:27:38.970Z,31.79
2019-05-18T15:30:13.304Z,31.90
2019-05-18T15:32:47.056Z,31.54
2019-05-18T15:35:20.787Z,31.42
2019-05-18T15:37:54.445Z,30.78
2019-05-18T15:40:27.996Z,30.45
2019-05-18T15:43:01.478Z,29.99
2019-05-18T15:45:35.205Z,29.96
2019-05-18T15:48:08.814Z,30.63
2019-05-18T15:50:42.354Z,30.75
2019-05-18T15:53:16.035Z,30.46
2019-05-18T15:55:49.513Z,30.06
2019-05-18T15:58:23.173Z,29.93
2019-05-18T16:00:56.783Z,29.88
2019-05-18T16:03:30.469Z,29.18
2019-05-18T16:06:04.082Z,29.19
2019-05-18T16:08:37.643Z,29.42
2019-05-18T16:11:11.183Z,29.46
2019-05-18T16:13:44.744Z,29.67
2019-05-18T16:16:18.302Z,30.01
2019-05-18T16:18:51.830Z,30.13
2019-05-18T16:21:25.292Z,30.00
2019-05-18T16:23:58.820Z,30.31
2019-05-18T16:26:32.382Z,30.55
2019-05-18T16:29:06.150Z,30.35
2019-05-18T16:31:39.854Z,30.58
2019-05-18T16:34:13.358Z,30.40
2019-05-18T16:36:46.995Z,30.39
2019-05-18T16:39:20.576Z,30.14
2019-05-18T16:41:54.064Z,30.23
2019-05-18T16:44:27.616Z,30.12
2019-05-18T16:47:01.137Z,30.18
2019-05-18T16:49:38.830Z,30.04
2019-05-18T16:52:12.384Z,30.03
2019-05-18T16:54:45.965Z,29.93
2019-05-18T16:57:19.635Z,29.75
2019-05-18T16:59:53.293Z,29.50
2019-05-18T17:02:31.802Z,29.55
2019-05-18T17:05:02.219Z,29.50
2019-05-18T17:07:36.088Z,29.47
2019-05-18T17:10:10.250Z,29.61
2019-05-18T17:12:44.015Z,29.76
2019-05-18T17:15:17.924Z,29.80
2019-05-18T17:17:51.574Z,29.67
2019-05-18T17:20:25.192Z,29.76
2019-05-18T17:22:58.955Z,29.96
2019-05-18T17:25:32.666Z,30.18
2019-05-18T17:28:06.275Z,30.31
2019-05-18T17:30:42.575Z,30.34
2019-05-18T17:33:15.284Z,30.24
2019-05-18T17:35:59.858Z,30.16
2019-05-18T17:38:24.216Z,30.33
2019-05-18T17:40:57.777Z,30.27
2019-05-18T17:43:31.457Z,30.43
2019-05-18T17:46:05.141Z,30.48
2019-05-18T17:48:38.619Z,30.94
2019-05-18T17:51:12.175Z,31.52
2019-05-18T17:53:45.655Z,31.70
2019-05-18T17:56:19.181Z,32.17
2019-05-18T17:58:52.695Z,32.50
2019-05-18T18:01:26.265Z,33.03
2019-05-18T18:03:59.815Z,33.58
2019-05-18T18:06:33.315Z,33.81
2019-05-18T18:09:08.243Z,34.39
2019-05-18T18:11:41.732Z,34.73
2019-05-18T18:14:15.208Z,34.97
2019-05-18T18:16:48.685Z,35.31
2019-05-18T18:19:22.342Z,35.73
2019-05-18T18:21:55.825Z,36.11
2019-05-18T18:24:29.445Z,36.47
2019-05-18T18:27:03.000Z,36.70
2019-05-18T18:29:36.656Z,37.04
2019-05-18T18:32:10.219Z,37.39
2019-05-18T18:34:43.948Z,37.88
2019-05-18T18:37:17.423Z,38.12
2019-05-18T18:39:50.959Z,38.57
2019-05-18T18:42:25.601Z,39.01
2019-05-18T18:44:59.136Z,39.55
2019-05-18T18:47:32.624Z,40.13
2019-05-18T18:50:09.455Z,40.55
2019-05-18T18:52:45.821Z,41.12
2019-05-18T18:55:19.389Z,41.56
2019-05-18T18:57:52.874Z,42.13
2019-05-18T19:00:26.351Z,42.59
2019-05-18T19:02:59.827Z,43.08
2019-05-18T19:05:33.358Z,43.73
2019-05-18T19:08:06.996Z,44.24
2019-05-18T19:10:40.568Z,44.53
2019-05-18T19:13:14.052Z,45.04
2019-05-18T19:15:47.555Z,45.29
2019-05-18T19:18:21.042Z,45.67
2019-05-18T19:20:54.585Z,46.02
2019-05-18T19:23:28.154Z,46.38
2019-05-18T19:26:01.637Z,46.59
2019-05-18T19:28:35.154Z,46.93
2019-05-18T19:31:08.611Z,47.13
2019-05-18T19:33:42.115Z,47.41
2019-05-18T19:36:15.639Z,47.21
2019-05-18T19:38:49.218Z,47.17
2019-05-18T19:41:22.817Z,48.06
2019-05-18T19:43:56.473Z,48.11
2019-05-18T19:46:30.026Z,48.58
2019-05-18T19:49:03.532Z,48.93
2019-05-18T19:51:37.062Z,49.42
2019-05-18T19:54:10.663Z,49.56
2019-05-18T19:56:44.627Z,49.79
2019-05-18T19:59:18.311Z,50.31
2019-05-18T20:01:51.799Z,50.43
2019-05-18T20:04:25.356Z,51.07
2019-05-18T20:06:58.851Z,51.46
2019-05-18T20:09:32.331Z,52.09
2019-05-18T20:12:05.870Z,53.00
2019-05-18T20:14:39.376Z,53.71
2019-05-18T20:17:12.959Z,54.49
2019-05-18T20:19:46.525Z,55.01
2019-05-18T20:22:20.067Z,55.46
2019-05-18T20:24:53.649Z,56.01
2019-05-18T20:27:27.202Z,56.38
2019-05-18T20:30:00.696Z,56.82
2019-05-18T20:32:34.213Z,57.27
2019-05-18T20:35:08.519Z,57.80
2019-05-18T20:37:42.477Z,58.22
2019-05-18T20:40:16.095Z,58.58
2019-05-18T20:42:49.633Z,59.08
2019-05-18T20:45:23.282Z,59.26
2019-05-18T20:47:56.764Z,59.57
2019-05-18T20:50:30.277Z,59.58
2019-05-18T20:53:03.828Z,60.03
2019-05-18T20:55:37.322Z,60.30
2019-05-18T20:58:10.879Z,60.54
2019-05-18T21:00:44.546Z,60.96
2019-05-18T21:03:18.127Z,61.09
2019-05-18T21:05:51.677Z,61.70
2019-05-18T21:08:25.151Z,61.74
2019-05-18T21:10:58.659Z,62.35
2019-05-18T21:13:32.155Z,62.86
2019-05-18T21:16:05.904Z,63.20
2019-05-18T21:18:39.386Z,63.65
2019-05-18T21:21:12.885Z,64.21
2019-05-18T21:23:46.356Z,64.40
2019-05-18T21:26:19.852Z,64.75
2019-05-18T21:28:56.389Z,65.09
2019-05-18T21:31:28.536Z,65.32
2019-05-18T21:34:02.012Z,65.59
2019-05-18T21:36:35.513Z,65.68
2019-05-18T21:39:08.985Z,66.01
2019-05-18T21:41:42.595Z,66.22
2019-05-18T21:44:16.106Z,66.50
2019-05-18T21:46:49.732Z,66.74
2019-05-18T21:49:23.233Z,66.92
2019-05-18T21:51:56.778Z,67.23
2019-05-18T21:54:30.308Z,67.62
2019-05-18T21:57:03.780Z,68.02
2019-05-18T21:59:37.347Z,68.45
2019-05-18T22:02:11.226Z,68.61
2019-05-18T22:04:44.863Z,68.96
2019-05-18T22:07:18.476Z,69.34
2019-05-18T22:09:53.790Z,69.58
2019-05-18T22:12:27.690Z,69.75
2019-05-18T22:15:03.379Z,69.96
2019-05-18T22:17:54.927Z,70.26
2019-05-18T22:20:28.503Z,70.81
2019-05-18T22:23:02.330Z,70.69
2019-05-18T22:25:35.975Z,70.99
2019-05-18T22:28:09.464Z,71.02
2019-05-18T22:30:43.117Z,71.34
2019-05-18T22:33:16.668Z,71.59
2019-05-18T22:35:50.268Z,71.95
2019-05-18T22:38:23.760Z,71.93
2019-05-18T22:40:57.284Z,72.06
2019-05-18T22:43:30.849Z,72.44
2019-05-18T22:46:04.356Z,72.56
2019-05-18T22:48:41.182Z,72.61
2019-05-18T22:51:13.259Z,72.91
2019-05-18T22:53:46.775Z,73.23
2019-05-18T22:56:20.417Z,73.55
2019-05-18T22:58:53.887Z,73.56
2019-05-18T23:01:27.925Z,73.73
2019-05-18T23:04:01.475Z,73.83
2019-05-18T23:06:35.058Z,73.86
2019-05-18T23:09:08.683Z,73.98
2019-05-18T23:11:46.792Z,73.96
2019-05-18T23:14:20.350Z,74.03
2019-05-18T23:16:53.974Z,74.06
2019-05-18T23:19:27.552Z,74.21
2019-05-18T23:22:01.067Z,74.58
2019-05-18T23:24:34.624Z,74.75
2019-05-18T23:27:08.269Z,75.15
2019-05-18T23:29:41.872Z,75.28
2019-05-18T23:32:15.785Z,75.35
2019-05-18T23:34:49.325Z,75.62
2019-05-18T23:37:23.051Z,75.71
2019-05-18T23:39:56.726Z,75.85
2019-05-18T23:42:30.246Z,75.82
2019-05-18T23:45:05.293Z,76.00
2019-05-18T23:47:38.921Z,76.23
2019-05-18T23:50:12.690Z,76.36
2019-05-18T23:52:46.287Z,76.56
2019-05-18T23:55:19.832Z,76.71
2019-05-18T23:57:53.423Z,76.85
